Time;durP1;ratioP1;P1;durP2;ratioP2;P2;SDS_P1;SDS_P2;PMS_P1;PMS_P2;Temp;Humidity;BMP_temperature;BMP_pressure;BME280_temperature;BME280_humidity;BME280_pressure;Samples;Min_cycle;Max_cycle;Signal;HPM_P1;HPM_P2
2023/01/07 00:01:19;;;;;;;44.10;26.10;;;14.80;58.20;;;;;;4995073;28;20026;-91
2023/01/07 00:03:46;;;;;;;43.50;26.33;;;14.80;58.60;;;;;;5012175;28;20375;-91
2023/01/07 00:06:18;;;;;;;41.47;25.55;;;14.90;58.40;;;;;;5012023;28;20023;-90
2023/01/07 00:08:46;;;;;;;42.17;26.20;;;15.00;58.70;;;;;;5012105;28;20045;-90
2023/01/07 00:11:18;;;;;;;41.55;26.42;;;15.00;58.30;;;;;;5012249;28;20165;-90
2023/01/07 00:13:44;;;;;;;48.03;26.85;;;15.10;58.20;;;;;;5011520;28;20125;-90
2023/01/07 00:16:14;;;;;;;43.80;25.00;;;15.10;58.30;;;;;;5012436;28;20086;-91
2023/01/07 00:18:40;;;;;;;43.45;26.25;;;15.10;57.90;;;;;;5012151;28;20034;-91
2023/01/07 00:21:09;;;;;;;51.78;29.13;;;14.90;58.40;;;;;;5012281;28;20088;-92
2023/01/07 00:23:36;;;;;;;43.58;26.83;;;14.90;58.60;;;;;;4995926;28;20050;-91
2023/01/07 00:26:08;;;;;;;48.47;29.40;;;14.90;58.30;;;;;;5011766;28;20481;-92
2023/01/07 00:28:36;;;;;;;50.45;30.90;;;15.10;58.20;;;;;;5011725;28;20027;-91
2023/01/07 00:31:06;;;;;;;50.50;28.05;;;15.00;58.40;;;;;;5011965;28;20382;-93
2023/01/07 00:33:35;;;;;;;48.45;29.05;;;14.90;58.10;;;;;;5012313;28;20037;-92
2023/01/07 00:36:08;;;;;;;49.10;27.73;;;15.00;57.90;;;;;;5011616;28;20026;-91
2023/01/07 00:38:35;;;;;;;45.30;28.75;;;15.00;58.50;;;;;;5011887;28;20030;-91
2023/01/07 00:41:01;;;;;;;49.22;28.73;;;15.00;58.70;;;;;;5011597;28;20592;-92
2023/01/07 00:43:27;;;;;;;47.33;28.23;;;14.90;58.70;;;;;;5011776;28;20038;-90
2023/01/07 00:45:53;;;;;;;50.80;30.30;;;15.00;58.30;;;;;;5011609;28;20514;-91
2023/01/07 00:48:20;;;;;;;47.95;27.33;;;14.80;58.90;;;;;;5011753;28;20117;-91
2023/01/07 00:50:48;;;;;;;50.70;29.90;;;14.80;58.90;;;;;;5011443;28;20026;-91
2023/01/07 00:53:14;;;;;;;50.20;28.98;;;14.90;58.70;;;;;;5011329;28;20031;-93
2023/01/07 00:55:40;;;;;;;39.58;24.60;;;14.90;58.60;;;;;;4994793;28;20027;-91
2023/01/07 00:58:06;;;;;;;41.13;23.52;;;14.90;58.90;;;;;;5011140;28;20029;-91
2023/01/07 01:00:32;;;;;;;36.38;19.95;;;15.00;59.20;;;;;;5002285;28;20022;-89
2023/01/07 01:02:58;;;;;;;31.55;17.25;;;15.00;59.40;;;;;;5009366;28;20030;-90
2023/01/07 01:05:24;;;;;;;34.60;17.80;;;15.00;60.10;;;;;;5011072;28;20049;-90
2023/01/07 01:07:50;;;;;;;29.80;14.20;;;15.10;60.00;;;;;;5011067;28;20124;-90
2023/01/07 01:10:18;;;;;;;24.25;14.50;;;15.10;60.50;;;;;;5011018;28;20038;-89
2023/01/07 01:12:48;;;;;;;27.95;14.20;;;15.30;60.40;;;;;;5011446;28;20026;-91
2023/01/07 01:15:15;;;;;;;24.23;13.23;;;15.30;60.60;;;;;;5011298;28;20493;-88
2023/01/07 01:17:41;;;;;;;25.15;13.48;;;15.40;60.40;;;;;;5011226;28;20056;-90
2023/01/07 01:20:11;;;;;;;20.52;13.07;;;15.40;60.70;;;;;;5010791;28;20377;-91
2023/01/07 01:22:37;;;;;;;21.15;12.82;;;15.50;60.40;;;;;;5011008;28;20093;-93
2023/01/07 01:25:03;;;;;;;23.05;12.98;;;15.70;60.00;;;;;;4994133;28;20113;-89
2023/01/07 01:27:30;;;;;;;18.60;12.20;;;15.60;60.20;;;;;;5010733;28;20054;-90
2023/01/07 01:29:57;;;;;;;22.52;12.88;;;15.60;60.30;;;;;;5010893;28;20022;-90
2023/01/07 01:32:22;;;;;;;22.80;12.77;;;15.70;60.10;;;;;;5010952;28;20058;-93
2023/01/07 01:34:48;;;;;;;18.92;11.70;;;15.60;60.30;;;;;;5010617;28;20061;-90
2023/01/07 01:37:14;;;;;;;20.40;11.98;;;15.60;60.60;;;;;;5010918;28;20030;-90
2023/01/07 01:39:40;;;;;;;23.25;12.38;;;15.50;60.80;;;;;;5010544;28;20051;-88
2023/01/07 01:42:08;;;;;;;24.63;14.02;;;15.70;60.50;;;;;;5010422;28;20026;-93
2023/01/07 01:44:36;;;;;;;19.10;11.98;;;15.80;60.40;;;;;;5010261;28;20061;-91
2023/01/07 01:47:13;;;;;;;22.60;13.05;;;15.90;60.20;;;;;;4994482;28;20038;-92
2023/01/07 01:49:43;;;;;;;20.45;12.07;;;16.00;60.10;;;;;;5010532;28;20030;-91
2023/01/07 01:52:13;;;;;;;18.85;11.73;;;16.20;59.50;;;;;;5007994;28;20036;-91
2023/01/07 01:54:43;;;;;;;17.83;11.93;;;16.30;59.30;;;;;;4974581;28;20089;-92
2023/01/07 01:57:09;;;;;;;21.17;12.55;;;16.40;59.20;;;;;;4990722;28;20042;-90
2023/01/07 01:59:38;;;;;;;20.10;12.18;;;16.50;59.20;;;;;;4991678;28;20027;-90
2023/01/07 02:02:07;;;;;;;21.75;12.05;;;16.50;58.80;;;;;;5010245;28;20026;-89
2023/01/07 02:04:33;;;;;;;19.35;12.43;;;16.50;58.80;;;;;;5010577;28;20112;-90
2023/01/07 02:07:02;;;;;;;21.98;13.07;;;16.30;58.90;;;;;;5010179;28;20430;-89
2023/01/07 02:09:28;;;;;;;21.67;13.20;;;16.30;58.70;;;;;;5010047;28;20041;-91
2023/01/07 02:12:03;;;;;;;25.63;14.35;;;16.10;58.80;;;;;;5010445;28;20022;-90
2023/01/07 02:14:50;;;;;;;24.90;14.85;;;15.90;59.20;;;;;;4994098;28;20034;-91
2023/01/07 02:17:34;;;;;;;30.02;14.15;;;16.00;59.40;;;;;;4994103;28;20019;-90
2023/01/07 02:20:06;;;;;;;27.10;14.95;;;15.90;59.30;;;;;;4993315;28;20528;-88
2023/01/07 02:22:35;;;;;;;28.17;14.95;;;15.90;59.10;;;;;;4993324;28;20057;-91
2023/01/07 02:25:40;;;;;;;28.20;15.50;;;15.90;58.90;;;;;;4992931;28;20039;-90
2023/01/07 02:28:38;;;;;;;27.98;14.68;;;16.00;58.30;;;;;;4993163;28;20112;-91
2023/01/07 02:31:32;;;;;;;23.15;14.88;;;16.00;58.60;;;;;;4993369;28;20042;-92
2023/01/07 02:34:11;;;;;;;27.52;15.88;;;15.80;58.90;;;;;;4993109;28;20030;-93
2023/01/07 02:36:47;;;;;;;26.63;15.40;;;15.80;58.80;;;;;;4992915;28;20030;-90
2023/01/07 02:39:34;;;;;;;26.63;14.52;;;15.70;59.20;;;;;;5002466;28;20026;-91
2023/01/07 02:42:19;;;;;;;22.02;13.30;;;15.80;59.00;;;;;;4982434;28;20026;-91
2023/01/07 02:44:58;;;;;;;21.33;12.77;;;15.70;59.40;;;;;;4918496;29;20122;-92
2023/01/07 02:47:35;;;;;;;22.92;13.30;;;15.80;59.10;;;;;;4918565;29;20064;-90
2023/01/07 02:50:01;;;;;;;26.58;15.10;;;15.80;59.20;;;;;;4918589;29;20527;-91
2023/01/07 02:52:30;;;;;;;24.63;13.98;;;15.80;59.40;;;;;;4917312;29;20099;-91
2023/01/07 02:55:01;;;;;;;23.75;13.88;;;15.90;59.00;;;;;;4934240;29;20032;-91
2023/01/07 02:57:44;;;;;;;25.48;14.02;;;15.90;59.40;;;;;;4918487;29;20028;-90
2023/01/07 03:00:12;;;;;;;23.98;14.18;;;15.90;59.20;;;;;;4934148;29;20032;-87
2023/01/07 03:03:07;;;;;;;20.00;13.48;;;15.90;59.40;;;;;;4935084;29;20123;-91
2023/01/07 03:05:52;;;;;;;22.08;14.18;;;16.00;59.60;;;;;;4934661;29;20028;-91
2023/01/07 03:08:32;;;;;;;22.92;13.20;;;16.00;59.60;;;;;;4935169;29;20134;-90
2023/01/07 03:11:01;;;;;;;26.08;13.63;;;16.00;59.50;;;;;;4934430;29;20431;-91
2023/01/07 03:13:29;;;;;;;23.85;13.63;;;15.70;59.90;;;;;;4935199;29;20609;-90
2023/01/07 03:16:09;;;;;;;39.22;13.82;;;15.60;60.30;;;;;;4934496;29;20435;-90
2023/01/07 03:18:44;;;;;;;22.17;13.32;;;15.60;60.50;;;;;;4934452;29;20118;-92
2023/01/07 03:21:14;;;;;;;23.63;13.35;;;15.70;60.10;;;;;;4948763;28;20037;-92
2023/01/07 03:23:44;;;;;;;22.23;13.88;;;15.80;59.90;;;;;;4992998;28;20177;-89
2023/01/07 03:26:11;;;;;;;;;;;15.80;59.80;;;;;;4993409;28;20037;-93
2023/01/07 03:28:41;;;;;;;28.02;14.68;;;15.70;59.90;;;;;;5009357;28;19905;-90
2023/01/07 03:31:12;;;;;;;25.17;14.82;;;15.70;60.00;;;;;;4992950;28;20030;-91
2023/01/07 03:33:50;;;;;;;24.52;14.35;;;15.50;60.10;;;;;;4993471;28;20033;-91
2023/01/07 03:36:18;;;;;;;27.35;15.13;;;15.40;60.80;;;;;;5009125;28;20030;-92
2023/01/07 03:38:45;;;;;;;21.83;14.15;;;15.20;61.50;;;;;;5009260;28;20045;-91
2023/01/07 03:42:38;;;;;;;26.98;14.45;;;15.10;61.00;;;;;;5009322;28;20085;-91
2023/01/07 03:43:56;;;;;;;23.95;14.68;;;15.10;61.30;;;;;;4993756;28;20042;-92
2023/01/07 03:46:22;;;;;;;29.90;14.90;;;15.30;61.00;;;;;;5008618;28;20029;-90
2023/01/07 03:48:49;;;;;;;21.10;13.23;;;15.40;60.60;;;;;;4994315;28;20022;-89
2023/01/07 03:51:14;;;;;;;26.05;14.25;;;15.20;60.80;;;;;;4996068;28;20022;-92
2023/01/07 03:53:40;;;;;;;24.42;13.85;;;14.80;61.10;;;;;;4992422;28;20440;-88
2023/01/07 03:56:06;;;;;;;20.95;13.32;;;14.70;62.10;;;;;;4976775;28;20026;-92
2023/01/07 03:58:32;;;;;;;26.45;14.85;;;14.50;62.20;;;;;;4976586;28;20150;-88
2023/01/07 04:00:57;;;;;;;26.75;16.17;;;14.50;62.40;;;;;;5011888;28;20481;-91
2023/01/07 04:03:23;;;;;;;28.55;16.00;;;14.70;62.50;;;;;;4998385;28;20112;-90
2023/01/07 04:05:49;;;;;;;28.83;15.68;;;14.80;61.80;;;;;;5012349;28;20022;-90
2023/01/07 04:08:14;;;;;;;23.60;15.18;;;15.00;61.50;;;;;;5012226;28;20062;-91
2023/01/07 04:10:40;;;;;;;25.75;14.50;;;14.90;61.50;;;;;;5012191;28;20026;-89
2023/01/07 04:13:06;;;;;;;24.40;15.18;;;14.90;61.50;;;;;;5012035;28;20037;-89
2023/01/07 04:15:31;;;;;;;24.98;15.43;;;14.70;61.50;;;;;;5011868;28;20026;-93
2023/01/07 04:17:57;;;;;;;24.17;14.80;;;14.80;61.70;;;;;;5012058;28;20034;-92
2023/01/07 04:20:23;;;;;;;25.33;15.00;;;14.90;61.40;;;;;;5011503;28;20767;-91
2023/01/07 04:22:49;;;;;;;27.00;14.52;;;15.10;61.00;;;;;;5000626;28;20034;-91
2023/01/07 04:25:14;;;;;;;29.42;16.10;;;15.10;61.00;;;;;;4995426;28;20030;-91
2023/01/07 04:27:40;;;;;;;25.98;14.70;;;15.10;61.00;;;;;;5011144;28;20082;-90
2023/01/07 04:30:07;;;;;;;26.17;15.38;;;15.10;60.60;;;;;;5007087;28;20095;-91
2023/01/07 04:32:33;;;;;;;23.98;14.43;;;15.00;61.20;;;;;;4992630;28;20027;-87
2023/01/07 04:34:58;;;;;;;26.73;15.68;;;15.00;61.00;;;;;;4992192;28;20022;-92
2023/01/07 04:37:24;;;;;;;27.52;15.70;;;15.00;61.50;;;;;;4991953;28;20394;-90
2023/01/07 04:39:50;;;;;;;27.75;15.63;;;14.90;61.60;;;;;;4993010;28;20030;-91
2023/01/07 04:42:15;;;;;;;28.08;15.80;;;14.80;61.60;;;;;;4992112;28;20031;-91
2023/01/07 04:44:42;;;;;;;24.38;13.95;;;14.80;61.60;;;;;;4991879;28;20400;-92
2023/01/07 04:47:08;;;;;;;27.27;14.88;;;14.70;61.60;;;;;;4992244;28;20114;-92
2023/01/07 04:49:33;;;;;;;25.83;15.13;;;14.80;61.60;;;;;;4992292;28;20429;-88
2023/01/07 04:51:59;;;;;;;31.38;16.08;;;14.70;61.30;;;;;;4991779;28;20026;-91
2023/01/07 04:54:25;;;;;;;26.88;14.90;;;14.60;61.70;;;;;;4977451;28;20034;-94
2023/01/07 04:56:50;;;;;;;25.75;15.25;;;14.70;61.10;;;;;;4994959;28;20041;-92
2023/01/07 04:59:16;;;;;;;26.10;15.13;;;14.40;61.90;;;;;;4995090;28;20109;-95
2023/01/07 05:01:42;;;;;;;27.98;15.40;;;14.30;61.70;;;;;;4994296;28;20026;-90
2023/01/07 05:04:07;;;;;;;27.55;17.00;;;14.20;61.80;;;;;;4995138;28;20034;-92
2023/01/07 05:06:33;;;;;;;39.92;20.80;;;14.00;62.80;;;;;;4994763;28;20057;-89
2023/01/07 05:08:59;;;;;;;40.05;21.95;;;14.20;62.20;;;;;;4994652;28;20160;-91
2023/01/07 05:11:24;;;;;;;54.50;29.42;;;14.10;62.70;;;;;;4995163;28;20393;-91
2023/01/07 05:13:51;;;;;;;69.20;33.30;;;14.00;62.60;;;;;;4995056;28;20050;-91
2023/01/07 05:16:17;;;;;;;63.97;30.58;;;14.00;62.60;;;;;;4994485;28;20025;-91
2023/01/07 05:18:43;;;;;;;44.45;21.35;;;14.10;62.40;;;;;;4994549;28;20033;-90
2023/01/07 05:21:09;;;;;;;61.90;31.60;;;14.00;62.30;;;;;;4994353;28;20022;-94
2023/01/07 05:23:35;;;;;;;33.15;20.38;;;14.00;62.70;;;;;;4994379;28;20038;-90
2023/01/07 05:26:02;;;;;;;32.65;18.90;;;13.90;62.90;;;;;;4994254;28;20069;-91
2023/01/07 05:28:28;;;;;;;36.53;18.25;;;13.90;62.80;;;;;;4994181;28;20030;-91
2023/01/07 05:30:53;;;;;;;33.90;19.40;;;13.80;63.70;;;;;;4994084;28;20022;-88
2023/01/07 05:33:19;;;;;;;37.92;22.60;;;13.90;63.80;;;;;;4993861;28;20181;-92
2023/01/07 05:35:47;;;;;;;74.05;32.28;;;14.10;63.20;;;;;;4994156;28;20027;-91
2023/01/07 05:38:13;;;;;;;55.63;26.33;;;14.30;61.90;;;;;;5010759;28;20440;-91
2023/01/07 05:40:41;;;;;;;63.53;27.95;;;14.10;63.30;;;;;;4977709;28;20058;-91
2023/01/07 05:43:06;;;;;;;70.70;30.98;;;14.10;62.50;;;;;;5010499;28;20046;-90
2023/01/07 05:45:32;;;;;;;34.15;21.15;;;14.30;63.20;;;;;;5009954;28;22188;-90
2023/01/07 05:47:58;;;;;;;31.42;18.58;;;14.30;61.90;;;;;;4993678;28;20026;-88
2023/01/07 05:50:23;;;;;;;29.42;17.55;;;14.20;62.50;;;;;;5010134;28;20023;-91
2023/01/07 05:52:50;;;;;;;39.28;21.73;;;14.00;62.50;;;;;;5010485;28;20460;-90
2023/01/07 05:55:16;;;;;;;32.90;18.55;;;14.00;62.00;;;;;;4993718;28;20117;-91
2023/01/07 05:57:41;;;;;;;33.75;18.15;;;14.10;62.50;;;;;;5010154;28;20121;-90
2023/01/07 06:00:09;;;;;;;30.65;18.88;;;14.20;62.50;;;;;;5000827;28;20034;-90
2023/01/07 06:02:36;;;;;;;34.47;18.05;;;14.20;62.10;;;;;;4990540;28;20129;-90
2023/01/07 06:05:02;;;;;;;30.98;17.17;;;14.20;62.00;;;;;;4990653;28;20433;-91
2023/01/07 06:07:28;;;;;;;33.47;17.60;;;14.30;61.40;;;;;;4990370;28;20456;-90
2023/01/07 06:09:54;;;;;;;30.52;17.30;;;14.40;61.00;;;;;;4990577;28;20117;-89
2023/01/07 06:12:29;;;;;;;26.98;17.13;;;14.10;61.00;;;;;;4994883;28;20058;-91
2023/01/07 06:14:55;;;;;;;32.83;17.45;;;14.00;61.90;;;;;;4993603;28;20042;-93
2023/01/07 06:17:21;;;;;;;32.30;18.52;;;13.90;61.90;;;;;;5010172;28;20037;-90
2023/01/07 06:19:46;;;;;;;31.95;19.10;;;13.80;62.10;;;;;;5009795;28;20029;-91
2023/01/07 06:22:13;;;;;;;32.05;17.45;;;13.70;62.30;;;;;;5009436;28;20026;-91
2023/01/07 06:24:38;;;;;;;30.00;17.75;;;13.80;62.30;;;;;;4993339;28;20077;-90
2023/01/07 06:27:04;;;;;;;31.00;17.98;;;13.80;62.60;;;;;;5009446;28;20078;-91
2023/01/07 06:29:30;;;;;;;31.13;17.55;;;13.70;62.70;;;;;;5009838;28;20034;-92
2023/01/07 06:31:56;;;;;;;30.70;19.00;;;13.60;62.70;;;;;;5009777;28;20054;-91
2023/01/07 06:34:21;;;;;;;30.73;17.83;;;13.40;63.00;;;;;;4993165;28;20027;-89
2023/01/07 06:36:47;;;;;;;32.97;18.40;;;13.20;63.70;;;;;;4993638;28;20031;-90
2023/01/07 06:39:13;;;;;;;31.00;17.27;;;13.10;64.00;;;;;;4994761;28;20061;-91
2023/01/07 06:41:38;;;;;;;34.50;19.40;;;12.80;64.80;;;;;;4991037;28;20031;-91
2023/01/07 06:44:17;;;;;;;37.53;22.92;;;12.90;65.00;;;;;;4991305;28;20050;-91
2023/01/07 06:47:03;;;;;;;46.80;29.27;;;12.50;66.40;;;;;;5001535;28;20030;-91
2023/01/07 06:49:29;;;;;;;89.75;58.65;;;12.20;66.20;;;;;;4995005;28;20126;-91
2023/01/07 06:54:56;;;;;;;61.88;36.22;;;12.20;66.50;;;;;;4984163;28;20033;-91
2023/01/07 06:57:22;;;;;;;55.53;28.83;;;12.80;65.20;;;;;;4996713;28;20034;-92
2023/01/07 06:59:48;;;;;;;51.60;29.75;;;13.30;63.50;;;;;;5005171;28;20081;-90
2023/01/07 07:02:19;;;;;;;47.15;27.98;;;13.80;62.70;;;;;;5009353;28;20121;-90
2023/01/07 07:04:45;;;;;;;51.30;27.77;;;14.20;62.00;;;;;;5009199;28;20037;-90
2023/01/07 07:07:11;;;;;;;80.97;45.20;;;14.30;60.30;;;;;;4987205;28;20030;-90
2023/01/07 07:09:45;;;;;;;72.35;39.10;;;13.70;62.00;;;;;;5002443;28;20031;-90
2023/01/07 07:12:11;;;;;;;49.15;28.88;;;13.80;61.70;;;;;;4979303;28;20062;-88
2023/01/07 07:14:37;;;;;;;51.55;29.80;;;13.70;61.00;;;;;;5011469;28;20030;-89
2023/01/07 07:17:04;;;;;;;51.47;27.40;;;13.50;61.70;;;;;;4994417;28;20077;-90
2023/01/07 07:19:30;;;;;;;51.30;29.42;;;13.80;60.80;;;;;;5008034;28;20054;-89
2023/01/07 07:21:56;;;;;;;53.72;29.52;;;14.00;60.40;;;;;;4999119;28;20363;-89
2023/01/07 07:24:21;;;;;;;62.20;31.15;;;14.20;60.20;;;;;;4980354;28;20047;-91
2023/01/07 07:26:48;;;;;;;47.28;28.13;;;14.50;59.80;;;;;;4995140;28;20470;-89
2023/01/07 07:29:14;;;;;;;45.97;27.17;;;14.60;58.60;;;;;;5007256;28;20030;-90
2023/01/07 07:31:42;;;;;;;54.13;29.30;;;14.40;59.50;;;;;;5013819;28;20027;-89
2023/01/07 07:34:09;;;;;;;56.67;30.75;;;14.30;59.20;;;;;;5013856;28;20037;-90
2023/01/07 07:36:35;;;;;;;62.38;33.20;;;14.50;59.60;;;;;;4998814;28;20106;-89
2023/01/07 07:39:01;;;;;;;66.10;35.15;;;14.60;59.00;;;;;;4984259;28;20070;-89
2023/01/07 07:41:29;;;;;;;65.22;35.35;;;14.70;58.50;;;;;;5008373;28;20073;-88
2023/01/07 07:43:54;;;;;;;64.32;32.00;;;14.80;58.50;;;;;;4996395;28;20548;-89
2023/01/07 07:46:30;;;;;;;56.72;32.15;;;14.80;58.40;;;;;;5015888;28;20030;-95
2023/01/07 07:48:56;;;;;;;49.42;29.90;;;14.80;58.40;;;;;;5015405;28;20049;-90
2023/01/07 07:51:22;;;;;;;56.47;31.10;;;14.40;58.60;;;;;;5001470;28;20018;-90
2023/01/07 07:53:50;;;;;;;50.17;28.52;;;14.10;60.00;;;;;;5013751;28;20034;-90
2023/01/07 07:56:15;;;;;;;48.83;28.92;;;14.10;59.80;;;;;;4997703;28;20034;-91
2023/01/07 07:58:42;;;;;;;50.22;28.67;;;14.20;60.20;;;;;;5004178;28;20070;-91
2023/01/07 08:01:08;;;;;;;54.38;32.92;;;14.20;59.70;;;;;;5004722;28;20086;-90
2023/01/07 08:03:37;;;;;;;58.08;33.15;;;13.50;60.70;;;;;;4997993;28;20038;-89
2023/01/07 08:06:04;;;;;;;69.25;39.13;;;12.90;63.10;;;;;;4997711;28;20018;-89
2023/01/07 08:08:29;;;;;;;65.63;35.45;;;13.20;63.20;;;;;;5002288;28;20138;-89
2023/01/07 08:10:55;;;;;;;58.85;34.83;;;14.00;61.70;;;;;;4995127;28;20474;-91
2023/01/07 08:13:21;;;;;;;56.17;33.53;;;14.60;60.00;;;;;;4994637;28;20031;-88
2023/01/07 08:15:48;;;;;;;57.80;33.42;;;14.80;59.30;;;;;;4994972;28;20026;-88
2023/01/07 08:18:13;;;;;;;51.70;30.45;;;14.80;59.40;;;;;;4988156;28;20138;-90
2023/01/07 08:20:39;;;;;;;48.30;28.88;;;14.90;59.10;;;;;;4997868;28;20022;-90
2023/01/07 08:23:06;;;;;;;54.95;30.80;;;15.10;59.00;;;;;;4994971;28;20065;-88
2023/01/07 08:25:33;;;;;;;52.70;30.80;;;15.10;59.00;;;;;;5011779;28;20037;-91
2023/01/07 08:28:00;;;;;;;53.95;30.80;;;14.60;59.60;;;;;;4995235;28;20061;-90
2023/01/07 08:30:27;;;;;;;61.67;34.65;;;14.70;60.00;;;;;;4995926;28;20545;-87
2023/01/07 08:32:53;;;;;;;60.22;34.55;;;15.10;58.90;;;;;;4995309;28;20370;-90
2023/01/07 08:35:19;;;;;;;58.67;34.97;;;15.40;58.30;;;;;;5010653;28;20473;-90
2023/01/07 08:37:44;;;;;;;62.50;35.03;;;15.60;58.10;;;;;;5011789;28;20026;-89
2023/01/07 08:40:11;;;;;;;62.58;36.58;;;15.80;57.70;;;;;;4995282;28;20470;-90
2023/01/07 08:42:37;;;;;;;67.15;39.97;;;15.90;57.70;;;;;;4995375;28;20030;-90
2023/01/07 08:45:04;;;;;;;62.42;38.05;;;16.00;57.50;;;;;;4995432;28;20026;-88
2023/01/07 08:47:30;;;;;;;63.30;37.65;;;16.20;57.30;;;;;;4989318;28;20140;-89
2023/01/07 08:49:56;;;;;;;67.18;39.28;;;16.30;57.10;;;;;;5010712;28;20073;-89
2023/01/07 08:52:23;;;;;;;66.45;39.80;;;16.40;56.70;;;;;;4993758;28;20192;-90
2023/01/07 08:54:49;;;;;;;64.53;39.17;;;16.60;56.80;;;;;;4995404;28;20033;-89
2023/01/07 08:57:16;;;;;;;59.28;38.00;;;17.50;56.60;;;;;;4993620;28;20042;-91
2023/01/07 08:59:42;;;;;;;61.60;36.92;;;19.10;54.60;;;;;;4982562;28;20428;-88
2023/01/07 09:02:16;;;;;;;65.00;43.17;;;21.00;52.20;;;;;;5002679;28;20031;-90
2023/01/07 09:04:42;;;;;;;44.05;30.92;;;22.70;49.40;;;;;;5003175;28;20026;-90
2023/01/07 09:07:09;;;;;;;56.67;29.48;;;23.20;48.70;;;;;;5010534;28;20030;-90
2023/01/07 09:09:35;;;;;;;45.70;29.85;;;23.90;48.00;;;;;;4993622;28;20030;-88
2023/01/07 09:12:02;;;;;;;48.28;32.42;;;24.70;46.70;;;;;;5007883;28;20027;-89
2023/01/07 09:14:28;;;;;;;41.60;28.08;;;25.50;45.90;;;;;;4980573;28;20023;-89
2023/01/07 09:16:54;;;;;;;38.08;25.40;;;26.20;45.40;;;;;;5006412;28;20031;-89
2023/01/07 09:19:19;;;;;;;34.85;21.63;;;26.60;44.80;;;;;;4996423;28;20085;-88
2023/01/07 09:21:46;;;;;;;35.97;22.02;;;26.40;44.30;;;;;;4992477;28;20030;-88
2023/01/07 09:24:11;;;;;;;39.30;28.58;;;26.00;44.90;;;;;;4980602;28;20552;-88
2023/01/07 09:26:37;;;;;;;36.75;22.65;;;26.10;44.80;;;;;;4979349;28;20035;-88
2023/01/07 09:29:03;;;;;;;31.48;20.08;;;26.30;44.80;;;;;;4982243;28;20045;-87
2023/01/07 09:31:29;;;;;;;31.15;19.80;;;26.30;44.70;;;;;;5002787;28;20026;-88
2023/01/07 09:33:54;;;;;;;34.75;21.92;;;26.70;44.40;;;;;;4992966;28;20065;-88
2023/01/07 09:36:20;;;;;;;30.17;21.13;;;26.40;44.60;;;;;;4988847;28;20038;-88
2023/01/07 09:38:46;;;;;;;31.85;21.33;;;26.30;44.70;;;;;;5002984;28;20041;-89
2023/01/07 09:41:49;;;;;;;30.45;20.75;;;26.80;44.50;;;;;;4993553;28;20030;-87
2023/01/07 09:44:39;;;;;;;28.85;19.55;;;27.50;44.00;;;;;;5002904;28;20040;-89
2023/01/07 09:47:07;;;;;;;28.20;19.30;;;27.90;43.60;;;;;;5000116;28;20234;-88
2023/01/07 09:49:33;;;;;;;31.25;21.45;;;28.10;43.50;;;;;;5000729;28;20483;-89
2023/01/07 09:52:09;;;;;;;30.90;21.83;;;28.20;43.20;;;;;;4993091;28;20025;-89
2023/01/07 09:54:36;;;;;;;78.95;62.75;;;28.30;43.20;;;;;;4981673;28;20031;-90
2023/01/07 09:57:03;;;;;;;33.00;21.95;;;27.30;43.90;;;;;;4990709;28;20049;-90
2023/01/07 09:59:29;;;;;;;36.60;21.42;;;27.50;43.50;;;;;;4995426;28;20022;-90
2023/01/07 10:01:58;;;;;;;36.17;22.42;;;26.30;44.20;;;;;;5007140;28;20025;-91
2023/01/07 10:04:41;;;;;;;36.38;23.50;;;26.10;45.00;;;;;;4993314;28;20038;-91
2023/01/07 10:07:15;;;;;;;30.27;20.77;;;27.30;44.80;;;;;;5009798;28;20180;-91
2023/01/07 10:10:05;;;;;;;29.98;19.30;;;28.70;43.00;;;;;;4993694;28;20033;-90
2023/01/07 10:12:40;;;;;;;31.35;20.10;;;26.70;44.20;;;;;;4992736;28;20019;-91
2023/01/07 10:15:18;;;;;;;104.80;76.50;;;25.20;45.90;;;;;;5000212;28;20493;-92
2023/01/07 10:18:01;;;;;;;40.58;30.00;;;24.40;46.40;;;;;;4993575;28;20069;-90
2023/01/07 10:20:48;;;;;;;35.50;22.88;;;23.90;46.60;;;;;;4993602;28;20030;-90
2023/01/07 10:23:37;;;;;;;38.85;25.83;;;23.10;48.20;;;;;;4996072;28;20042;-94
2023/01/07 10:26:05;;;;;;;43.03;27.05;;;23.50;48.10;;;;;;4971869;28;20035;-90
2023/01/07 10:28:57;;;;;;;38.35;23.23;;;24.90;47.10;;;;;;5001181;28;20034;-94
2023/01/07 10:31:26;;;;;;;39.33;25.80;;;25.40;45.80;;;;;;4999180;28;20069;-94
2023/01/07 10:33:52;;;;;;;37.85;23.65;;;25.70;46.40;;;;;;5008899;28;20077;-90
2023/01/07 10:36:37;;;;;;;37.47;24.58;;;26.80;45.60;;;;;;4987453;28;20035;-90
2023/01/07 10:39:41;;;;;;;39.05;26.05;;;27.00;44.70;;;;;;4989621;28;20045;-91
2023/01/07 10:42:30;;;;;;;34.60;22.77;;;27.10;44.80;;;;;;5003752;28;20499;-91
2023/01/07 10:45:23;;;;;;;36.60;23.42;;;26.10;44.70;;;;;;4999902;28;20034;-91
2023/01/07 10:48:14;;;;;;;43.38;26.58;;;25.40;45.70;;;;;;5001715;28;20033;-91
2023/01/07 10:51:09;;;;;;;33.10;22.48;;;25.30;45.90;;;;;;4992035;28;20034;-90
2023/01/07 10:53:50;;;;;;;36.38;22.58;;;24.70;46.40;;;;;;4988833;28;20123;-93
2023/01/07 10:56:30;;;;;;;40.80;26.73;;;24.30;46.90;;;;;;4977488;28;20100;-91
2023/01/07 10:58:57;;;;;;;35.22;22.88;;;23.40;47.80;;;;;;5010231;28;20025;-89
2023/01/07 11:01:34;;;;;;;47.30;35.55;;;22.40;49.30;;;;;;5013174;28;20030;-88
2023/01/07 11:04:00;;;;;;;36.75;22.67;;;21.90;50.30;;;;;;5011980;28;20042;-89
2023/01/07 11:06:45;;;;;;;38.30;23.98;;;22.30;50.00;;;;;;5011989;28;20034;-88
2023/01/07 11:09:18;;;;;;;33.17;20.88;;;22.90;49.50;;;;;;4995066;28;20034;-89
2023/01/07 11:11:45;;;;;;;31.20;20.10;;;23.10;48.40;;;;;;4997478;28;20054;-89
2023/01/07 11:14:20;;;;;;;31.13;22.60;;;22.70;49.00;;;;;;5011541;28;20584;-88
2023/01/07 11:16:55;;;;;;;32.88;22.10;;;22.80;49.20;;;;;;4982392;28;20027;-88
2023/01/07 11:19:22;;;;;;;34.05;22.85;;;22.20;49.60;;;;;;4976202;28;20030;-91
2023/01/07 11:21:50;;;;;;;33.72;21.77;;;21.80;50.30;;;;;;5003774;28;20381;-91
2023/01/07 11:24:34;;;;;;;28.55;20.60;;;21.60;50.90;;;;;;4995138;28;20034;-90
2023/01/07 11:28:47;;;;;;;35.35;22.38;;;21.90;50.40;;;;;;5077063;27;1439298;-89
2023/01/07 11:31:13;;;;;;;38.60;23.15;;;21.40;51.00;;;;;;5084068;28;20031;-91
2023/01/07 11:33:42;;;;;;;49.92;29.75;;;20.70;51.80;;;;;;5073315;28;20035;-90
2023/01/07 11:36:08;;;;;;;39.80;25.13;;;19.50;54.30;;;;;;5073497;28;20039;-89
2023/01/07 11:38:36;;;;;;;33.08;21.40;;;18.80;55.30;;;;;;5073376;28;20486;-89
2023/01/07 11:41:05;;;;;;;33.80;22.15;;;18.60;56.10;;;;;;5077595;28;20028;-91
2023/01/07 11:43:39;;;;;;;37.53;22.13;;;18.80;55.90;;;;;;5093757;28;20497;-90
2023/01/07 11:46:12;;;;;;;42.67;24.90;;;19.00;55.40;;;;;;5100916;28;20052;-90
2023/01/07 11:49:00;;;;;;;30.10;18.50;;;18.20;56.80;;;;;;5073102;28;20044;-91
2023/01/07 11:51:36;;;;;;;25.08;16.13;;;18.30;56.90;;;;;;5073098;28;20028;-91
2023/01/07 11:54:02;;;;;;;25.52;17.02;;;18.50;56.60;;;;;;4384976;28;10000738;-91
2023/01/07 11:56:33;;;;;;;28.75;16.67;;;18.60;56.70;;;;;;5098230;28;20029;-89
2023/01/07 11:59:11;;;;;;;;;;;18.90;55.60;;;;;;5087751;28;20061;-89
2023/01/07 12:01:55;;;;;;;23.15;15.27;;;18.50;55.90;;;;;;5092750;28;19904;-90
2023/01/07 12:04:33;;;;;;;20.15;14.32;;;17.90;57.30;;;;;;5084542;28;20051;-91
2023/01/07 12:07:04;;;;;;;24.75;16.23;;;17.50;58.40;;;;;;5092223;28;20516;-91
2023/01/07 12:09:38;;;;;;;28.55;17.88;;;17.60;58.50;;;;;;5074403;28;20077;-92
2023/01/07 12:12:38;;;;;;;37.17;22.35;;;17.70;58.10;;;;;;5088983;28;20032;-91
2023/01/07 12:15:22;;;;;;;34.83;22.27;;;17.90;57.90;;;;;;5091314;28;20096;-91
2023/01/07 12:18:06;;;;;;;29.38;19.27;;;18.20;57.60;;;;;;5076727;28;20016;-89
2023/01/07 12:20:59;;;;;;;29.95;18.13;;;18.00;57.70;;;;;;5091702;28;20020;-89
2023/01/07 12:23:25;;;;;;;26.30;16.17;;;17.80;58.10;;;;;;5091792;28;20038;-87
2023/01/07 12:26:04;;;;;;;19.55;13.02;;;17.50;58.60;;;;;;5084030;28;20029;-87
2023/01/07 12:28:50;;;;;;;18.67;11.20;;;17.10;58.70;;;;;;5072004;28;20044;-91
2023/01/07 12:32:07;;;;;;;19.50;12.88;;;16.90;59.40;;;;;;5077898;28;20020;-87
2023/01/07 12:34:42;;;;;;;22.65;12.77;;;17.10;59.30;;;;;;4976452;28;20133;-88
2023/01/07 12:37:27;;;;;;;23.92;14.63;;;17.40;59.00;;;;;;4992758;28;20080;-91
2023/01/07 12:40:17;;;;;;;30.67;17.48;;;18.00;58.30;;;;;;4979800;28;20026;-91
2023/01/07 12:42:55;;;;;;;22.63;14.60;;;18.70;57.00;;;;;;4995145;28;20030;-90
2023/01/07 12:45:52;;;;;;;20.60;13.25;;;19.10;56.10;;;;;;4973035;28;20027;-85
2023/01/07 12:48:29;;;;;;;16.80;11.13;;;19.10;55.70;;;;;;4958750;28;20086;-90
2023/01/07 12:50:57;;;;;;;22.00;13.18;;;18.70;56.10;;;;;;4959647;28;20144;-91